Time;durP1;ratioP1;P1;durP2;ratioP2;P2;SDS_P1;SDS_P2;PMS_P1;PMS_P2;Temp;Humidity;BMP_temperature;BMP_pressure;BME280_temperature;BME280_humidity;BME280_pressure;Samples;Min_cycle;Max_cycle;Signal;HPM_P1;HPM_P2
2022/10/16 00:02:23;;;;;;;2.15;1.40;;;;;;;15.35;100.00;96234.66;5037913;28;20229;-73
2022/10/16 00:04:49;;;;;;;3.00;1.65;;;;;;;15.28;100.00;96236.53;5038243;28;20197;-73
2022/10/16 00:07:16;;;;;;;3.45;1.65;;;;;;;15.27;100.00;96234.91;5038517;28;20201;-73
2022/10/16 00:09:42;;;;;;;3.72;1.50;;;;;;;15.22;100.00;96233.88;5038197;28;20211;-73
2022/10/16 00:12:09;;;;;;;5.30;1.95;;;;;;;15.21;100.00;96241.03;5037713;28;20213;-73
2022/10/16 00:14:35;;;;;;;2.13;1.42;;;;;;;15.18;100.00;96241.41;5037344;28;20208;-73
2022/10/16 00:17:02;;;;;;;3.13;1.60;;;;;;;15.17;100.00;96234.44;5038317;28;20212;-73
2022/10/16 00:19:29;;;;;;;4.68;1.85;;;;;;;15.19;100.00;96245.69;5038057;28;20204;-73
2022/10/16 00:21:56;;;;;;;5.13;1.77;;;;;;;15.14;100.00;96248.16;5037563;28;20224;-73
2022/10/16 00:24:22;;;;;;;3.78;2.00;;;;;;;15.12;100.00;96242.25;5037720;28;20220;-73
2022/10/16 00:26:50;;;;;;;3.83;1.63;;;;;;;15.17;100.00;96246.91;5034973;28;20220;-73
2022/10/16 00:29:17;;;;;;;4.85;1.70;;;;;;;15.08;100.00;96238.34;5037527;28;20209;-73
2022/10/16 00:31:43;;;;;;;3.55;1.60;;;;;;;15.08;100.00;96243.66;5038287;28;21144;-73
2022/10/16 00:34:10;;;;;;;3.97;1.77;;;;;;;15.08;100.00;96248.94;5038006;28;20212;-73
2022/10/16 00:36:37;;;;;;;5.93;1.92;;;;;;;15.12;100.00;96244.91;5037545;28;20208;-73
2022/10/16 00:39:04;;;;;;;8.82;1.77;;;;;;;15.09;100.00;96236.50;5037888;28;20202;-73
2022/10/16 00:41:31;;;;;;;4.18;2.10;;;;;;;15.01;100.00;96234.88;5038824;28;20225;-73
2022/10/16 00:44:00;;;;;;;6.25;2.40;;;;;;;15.13;100.00;96232.44;5036962;28;20205;-73
2022/10/16 00:46:29;;;;;;;2.67;1.63;;;;;;;15.11;100.00;96229.16;5036824;28;20205;-73
2022/10/16 00:49:01;;;;;;;4.82;1.83;;;;;;;15.18;100.00;96228.13;5037663;28;20684;-73
2022/10/16 00:51:33;;;;;;;2.88;1.38;;;;;;;15.15;100.00;96233.84;5037248;28;20599;-73
2022/10/16 00:54:03;;;;;;;2.88;1.40;;;;;;;15.11;100.00;96219.38;5036980;28;20230;-73
2022/10/16 00:56:29;;;;;;;2.67;1.30;;;;;;;15.02;100.00;96227.72;5037795;28;20197;-73
2022/10/16 00:58:56;;;;;;;2.33;1.45;;;;;;;14.99;100.00;96220.97;5037375;28;20197;-73
2022/10/16 01:01:22;;;;;;;2.30;1.30;;;;;;;14.93;100.00;96216.50;5037396;28;20229;-73
2022/10/16 01:03:49;;;;;;;7.05;1.50;;;;;;;14.88;100.00;96228.72;5037307;28;20204;-73
2022/10/16 01:06:24;;;;;;;7.63;1.88;;;;;;;14.94;100.00;96228.75;5037210;28;20202;-73
2022/10/16 01:09:01;;;;;;;4.47;1.40;;;;;;;14.90;100.00;96238.13;5036978;28;20197;-73
2022/10/16 01:11:35;;;;;;;3.08;1.35;;;;;;;14.88;100.00;96242.00;5037664;28;20225;-73
2022/10/16 01:14:09;;;;;;;3.38;1.23;;;;;;;14.79;100.00;96244.06;5036860;28;20201;-73
2022/10/16 01:16:44;;;;;;;2.35;1.60;;;;;;;14.74;100.00;96246.50;5037221;28;20207;-73
2022/10/16 01:19:16;;;;;;;3.25;1.40;;;;;;;14.69;100.00;96235.66;5037056;28;20207;-73
2022/10/16 01:21:47;;;;;;;3.30;1.38;;;;;;;14.63;100.00;96236.47;5040883;28;20227;-73
2022/10/16 01:24:23;;;;;;;2.38;1.50;;;;;;;14.63;100.00;96240.97;5040959;28;20201;-73
2022/10/16 01:27:09;;;;;;;2.28;1.38;;;;;;;14.51;100.00;96239.94;5037443;28;20208;-73
2022/10/16 01:29:41;;;;;;;2.72;1.42;;;;;;;14.35;100.00;96239.47;5041190;28;20201;-73
2022/10/16 01:32:14;;;;;;;1.85;1.20;;;;;;;14.29;100.00;96245.56;5041070;28;20217;-73
2022/10/16 01:34:48;;;;;;;3.67;1.48;;;;;;;14.30;100.00;96249.84;5040715;28;21488;-73
2022/10/16 01:37:19;;;;;;;4.90;1.25;;;;;;;14.25;100.00;96253.09;5041408;28;20711;-73
2022/10/16 01:39:50;;;;;;;2.95;1.75;;;;;;;14.06;100.00;96253.00;5041194;28;20206;-73
2022/10/16 01:42:22;;;;;;;5.38;1.70;;;;;;;14.19;100.00;96243.31;5040508;28;20236;-73
2022/10/16 01:44:52;;;;;;;4.10;1.25;;;;;;;14.09;100.00;96244.66;5040821;28;20211;-73
2022/10/16 01:47:20;;;;;;;5.18;1.50;;;;;;;14.12;100.00;96246.94;5040974;28;20204;-73
2022/10/16 01:49:47;;;;;;;6.13;1.50;;;;;;;14.01;100.00;96239.50;5040513;28;20217;-73
2022/10/16 01:52:19;;;;;;;7.25;1.73;;;;;;;13.99;100.00;96242.38;5040675;28;20221;-73
2022/10/16 01:54:49;;;;;;;3.60;1.27;;;;;;;14.02;100.00;96241.16;5041468;28;20205;-73
2022/10/16 01:57:19;;;;;;;6.28;1.50;;;;;;;13.94;100.00;96238.69;5039627;28;20280;-73
2022/10/16 01:59:51;;;;;;;3.70;1.35;;;;;;;13.91;100.00;96238.25;5040910;28;20203;-73
2022/10/16 02:02:20;;;;;;;2.55;1.42;;;;;;;13.84;100.00;96240.88;5040364;28;20228;-73
2022/10/16 02:04:50;;;;;;;5.88;1.48;;;;;;;13.90;100.00;96247.22;5040657;28;20209;-73
2022/10/16 02:07:17;;;;;;;4.88;1.58;;;;;;;13.94;100.00;96243.97;5040795;28;20212;-73
2022/10/16 02:09:44;;;;;;;3.83;1.80;;;;;;;14.00;100.00;96243.16;5040200;28;20685;-73
2022/10/16 02:12:15;;;;;;;6.15;1.40;;;;;;;14.10;100.00;96233.06;5039711;28;20709;-73
2022/10/16 02:14:43;;;;;;;5.15;2.25;;;;;;;14.10;100.00;96248.97;5040021;28;20205;-73
2022/10/16 02:17:15;;;;;;;4.88;1.95;;;;;;;14.14;100.00;96244.91;5040112;28;20209;-73
2022/10/16 02:19:42;;;;;;;6.10;1.90;;;;;;;14.15;100.00;96242.06;5040122;28;20197;-73
2022/10/16 02:22:16;;;;;;;5.22;1.30;;;;;;;14.15;100.00;96243.88;5039899;28;20229;-73
2022/10/16 02:24:52;;;;;;;2.80;1.70;;;;;;;14.13;100.00;96246.75;5039354;28;20201;-73
2022/10/16 02:27:23;;;;;;;5.95;1.80;;;;;;;14.10;100.00;96251.59;5037499;28;20204;-72
2022/10/16 02:29:59;;;;;;;8.25;1.70;;;;;;;14.07;100.00;96255.44;5040102;28;20201;-73
2022/10/16 02:32:31;;;;;;;1.90;1.27;;;;;;;14.14;100.00;96255.50;5036867;28;20225;-73
2022/10/16 02:35:00;;;;;;;3.95;1.20;;;;;;;14.05;100.00;96252.19;5040147;28;20209;-73
2022/10/16 02:37:27;;;;;;;2.13;1.50;;;;;;;14.04;100.00;96258.50;5039815;28;20276;-73
2022/10/16 02:39:55;;;;;;;4.47;1.40;;;;;;;14.10;100.00;96256.91;5039773;28;20193;-73
2022/10/16 02:42:28;;;;;;;4.85;1.75;;;;;;;14.05;100.00;96249.53;5038331;28;20229;-73
2022/10/16 02:44:56;;;;;;;2.47;1.38;;;;;;;14.12;100.00;96258.34;5040028;28;20682;-73
2022/10/16 02:47:22;;;;;;;3.28;2.00;;;;;;;14.07;100.00;96271.34;5039657;28;20205;-73
2022/10/16 02:49:49;;;;;;;8.20;1.60;;;;;;;14.11;100.00;96277.09;5036202;28;20211;-73
2022/10/16 02:52:15;;;;;;;2.33;1.73;;;;;;;14.08;100.00;96280.97;5038911;28;20221;-72
2022/10/16 02:54:42;;;;;;;2.83;1.55;;;;;;;14.02;100.00;96283.56;5038737;28;20201;-72
2022/10/16 02:57:08;;;;;;;3.22;1.90;;;;;;;13.99;100.00;96284.75;5038987;28;20205;-73
2022/10/16 02:59:35;;;;;;;4.20;1.65;;;;;;;13.94;100.00;96280.25;5039719;28;20197;-72
2022/10/16 03:02:03;;;;;;;4.03;1.83;;;;;;;14.03;100.00;96269.28;5039391;28;20628;-73
2022/10/16 03:04:29;;;;;;;6.88;1.70;;;;;;;13.98;100.00;96272.53;5037898;28;20216;-73
2022/10/16 03:06:56;;;;;;;3.50;1.67;;;;;;;13.98;100.00;96291.06;5039411;28;20223;-73
2022/10/16 03:09:23;;;;;;;4.57;1.70;;;;;;;14.10;100.00;96275.47;5040137;28;20212;-73
2022/10/16 03:11:49;;;;;;;7.22;1.73;;;;;;;14.08;100.00;96269.56;5038884;28;21054;-73
2022/10/16 03:14:16;;;;;;;3.25;1.70;;;;;;;14.08;100.00;96261.59;5038351;28;20217;-73
2022/10/16 03:16:42;;;;;;;3.28;1.83;;;;;;;13.98;100.00;96266.41;5038768;28;20684;-73
2022/10/16 03:19:10;;;;;;;2.85;1.70;;;;;;;14.02;100.00;96267.66;5039364;28;20201;-73
2022/10/16 03:21:37;;;;;;;3.60;1.98;;;;;;;14.03;100.00;96266.66;5038518;28;21069;-73
2022/10/16 03:24:04;;;;;;;2.65;1.88;;;;;;;14.12;100.00;96273.44;5037999;28;20232;-73
2022/10/16 03:26:31;;;;;;;4.32;1.67;;;;;;;14.07;100.00;96266.03;5036524;28;20201;-73
2022/10/16 03:28:57;;;;;;;6.00;1.92;;;;;;;14.02;100.00;96259.69;5038347;28;20197;-73
2022/10/16 03:31:24;;;;;;;5.13;1.80;;;;;;;14.09;100.00;96271.16;5038621;28;20224;-72
2022/10/16 03:33:50;;;;;;;4.60;1.90;;;;;;;14.10;100.00;96270.16;5037759;28;20283;-73
2022/10/16 03:36:18;;;;;;;9.95;1.90;;;;;;;14.17;100.00;96271.03;5038395;28;20201;-73
2022/10/16 03:38:45;;;;;;;8.93;1.92;;;;;;;14.09;100.00;96269.34;5037836;28;20201;-73
2022/10/16 03:41:11;;;;;;;5.72;1.85;;;;;;;14.22;100.00;96263.28;5038478;28;20221;-73
2022/10/16 03:43:39;;;;;;;3.88;2.10;;;;;;;14.22;100.00;96268.59;5036230;28;20228;-73
2022/10/16 03:46:06;;;;;;;2.83;1.85;;;;;;;14.27;100.00;96271.47;5037835;28;20670;-73
2022/10/16 03:48:33;;;;;;;3.10;1.83;;;;;;;14.21;100.00;96264.31;5037856;28;20220;-73
2022/10/16 03:50:59;;;;;;;4.50;1.48;;;;;;;14.27;100.00;96266.97;5038017;28;20217;-73
2022/10/16 03:53:27;;;;;;;5.53;1.70;;;;;;;14.29;100.00;96253.53;5036913;28;21137;-73
2022/10/16 03:55:54;;;;;;;4.30;1.98;;;;;;;14.28;100.00;96257.19;5038004;28;20208;-73
2022/10/16 03:58:20;;;;;;;6.28;1.90;;;;;;;14.27;100.00;96258.22;5038190;28;20209;-73
2022/10/16 04:00:48;;;;;;;7.57;1.88;;;;;;;14.18;100.00;96262.06;5036386;28;20209;-73
2022/10/16 04:03:15;;;;;;;3.85;1.80;;;;;;;14.12;100.00;96262.84;5036153;28;20221;-73
2022/10/16 04:05:42;;;;;;;2.50;1.75;;;;;;;14.12;100.00;96255.69;5037502;28;20216;-75
2022/10/16 04:08:08;;;;;;;3.53;1.73;;;;;;;14.10;100.00;96259.56;5037406;28;20205;-74
2022/10/16 04:10:36;;;;;;;3.60;2.00;;;;;;;14.10;100.00;96272.81;5036832;28;20208;-73
2022/10/16 04:13:03;;;;;;;9.48;1.88;;;;;;;14.09;100.00;96268.53;5036762;28;20316;-75
2022/10/16 04:15:29;;;;;;;2.90;1.65;;;;;;;14.11;100.00;96263.84;5037135;28;20201;-74
2022/10/16 04:17:56;;;;;;;6.68;1.80;;;;;;;14.10;100.00;96264.84;5036608;28;20228;-73
2022/10/16 04:20:22;;;;;;;3.17;1.85;;;;;;;14.11;100.00;96263.84;5037112;28;20202;-75
2022/10/16 04:22:49;;;;;;;6.65;1.88;;;;;;;14.11;100.00;96272.59;5037495;28;20221;-74
2022/10/16 04:25:16;;;;;;;5.03;1.73;;;;;;;14.02;100.00;96283.56;5036682;28;20208;-74
2022/10/16 04:27:44;;;;;;;3.28;1.77;;;;;;;14.15;100.00;96289.78;5033761;28;20205;-74
2022/10/16 04:30:11;;;;;;;9.43;2.08;;;;;;;14.16;100.00;96285.28;5037700;28;20201;-74
2022/10/16 04:32:37;;;;;;;6.43;2.25;;;;;;;14.11;100.00;96287.69;5036298;28;20388;-73
2022/10/16 04:35:04;;;;;;;4.13;1.98;;;;;;;14.05;100.00;96285.78;5036754;28;20201;-73
2022/10/16 04:37:31;;;;;;;8.32;1.77;;;;;;;13.97;100.00;96283.31;5036840;28;20201;-75
2022/10/16 04:39:58;;;;;;;3.25;1.58;;;;;;;13.98;100.00;96286.81;5037289;28;20215;-73
2022/10/16 04:42:24;;;;;;;2.03;1.60;;;;;;;13.96;100.00;96294.13;5035462;28;20312;-74
2022/10/16 04:44:52;;;;;;;7.78;1.80;;;;;;;13.94;100.00;96286.38;5037143;28;20201;-75
2022/10/16 04:47:19;;;;;;;1.98;1.48;;;;;;;13.95;100.00;96293.31;5036510;28;20669;-74
2022/10/16 04:49:46;;;;;;;2.53;1.50;;;;;;;13.84;100.00;96288.56;5036542;28;20209;-72
2022/10/16 04:52:12;;;;;;;5.32;1.60;;;;;;;13.81;100.00;96302.19;5036768;28;20227;-74
2022/10/16 04:54:39;;;;;;;11.07;1.75;;;;;;;13.81;100.00;96304.00;5036078;28;20208;-74
2022/10/16 04:57:05;;;;;;;6.07;2.47;;;;;;;13.81;100.00;96291.59;5036382;28;20200;-73
2022/10/16 04:59:32;;;;;;;2.33;1.58;;;;;;;13.75;100.00;96279.13;5036476;28;20197;-74
2022/10/16 05:02:00;;;;;;;6.25;1.33;;;;;;;13.76;100.00;96294.00;5036897;28;20228;-73
2022/10/16 05:04:26;;;;;;;8.52;1.50;;;;;;;13.72;100.00;96292.78;5035876;28;20225;-74
2022/10/16 05:06:53;;;;;;;2.50;1.60;;;;;;;13.63;100.00;96299.22;5036688;28;20201;-73
2022/10/16 05:09:20;;;;;;;4.05;1.63;;;;;;;13.72;100.00;96308.66;5036234;28;20733;-73
2022/10/16 05:11:47;;;;;;;2.10;1.52;;;;;;;13.72;100.00;96316.59;5036049;28;20224;-73
2022/10/16 05:14:13;;;;;;;5.68;1.73;;;;;;;13.70;100.00;96318.63;5036117;28;20749;-73
2022/10/16 05:16:40;;;;;;;5.85;1.75;;;;;;;13.59;100.00;96313.88;5036378;28;20681;-74
2022/10/16 05:19:08;;;;;;;10.20;1.90;;;;;;;13.58;100.00;96317.53;5036185;28;20204;-75
2022/10/16 05:21:34;;;;;;;7.82;1.75;;;;;;;13.50;100.00;96317.69;5036229;28;20582;-75
2022/10/16 05:24:01;;;;;;;3.92;2.00;;;;;;;13.44;100.00;96313.16;5035905;28;20228;-74
2022/10/16 05:26:27;;;;;;;2.70;2.00;;;;;;;13.45;100.00;96312.16;5033665;28;20201;-73
2022/10/16 05:28:54;;;;;;;7.28;1.92;;;;;;;13.49;100.00;96313.41;5035895;28;20205;-73
2022/10/16 05:31:20;;;;;;;1.98;1.63;;;;;;;13.49;100.00;96312.56;5035929;28;20224;-73
2022/10/16 05:33:47;;;;;;;4.97;2.13;;;;;;;13.49;100.00;96307.25;5036256;28;20200;-74
2022/10/16 05:36:15;;;;;;;2.70;1.77;;;;;;;13.55;100.00;96295.91;5036364;28;20197;-74
2022/10/16 05:38:41;;;;;;;3.28;2.08;;;;;;;13.41;100.00;96305.56;5036034;28;20208;-74
2022/10/16 05:41:08;;;;;;;3.85;2.80;;;;;;;13.46;100.00;96305.81;5036398;28;20231;-74
2022/10/16 05:43:35;;;;;;;7.28;2.40;;;;;;;13.43;100.00;96308.84;5035774;28;20233;-73
2022/10/16 05:46:06;;;;;;;17.30;2.17;;;;;;;13.51;100.00;96316.66;5036154;28;20227;-73
2022/10/16 05:48:33;;;;;;;6.30;2.20;;;;;;;13.36;100.00;96316.94;5036196;28;20213;-73
2022/10/16 05:51:01;;;;;;;3.47;1.88;;;;;;;13.45;100.00;96311.31;5036159;28;20213;-73
2022/10/16 05:53:31;;;;;;;6.60;1.75;;;;;;;13.36;100.00;96324.88;5034861;28;20759;-75
2022/10/16 05:55:58;;;;;;;8.02;1.80;;;;;;;13.37;100.00;96318.59;5036304;28;20206;-73
2022/10/16 05:58:26;;;;;;;4.07;1.77;;;;;;;13.37;100.00;96327.34;5036393;28;20205;-74
2022/10/16 06:00:57;;;;;;;9.73;1.80;;;;;;;13.40;100.00;96324.28;5036084;28;20207;-73
2022/10/16 06:03:24;;;;;;;2.60;1.58;;;;;;;13.34;100.00;96335.66;5035073;28;20579;-73
2022/10/16 06:05:50;;;;;;;14.65;1.60;;;;;;;13.31;100.00;96336.03;5035743;28;20201;-73
2022/10/16 06:08:18;;;;;;;1.95;1.52;;;;;;;13.44;100.00;96329.03;5037383;28;20209;-73
2022/10/16 06:10:46;;;;;;;5.40;1.65;;;;;;;13.51;100.00;96332.53;5038547;28;20189;-73
2022/10/16 06:13:13;;;;;;;4.63;2.22;;;;;;;13.60;100.00;96339.31;5037828;28;20197;-73
2022/10/16 06:15:41;;;;;;;6.68;2.10;;;;;;;13.67;100.00;96337.56;5038975;28;20211;-73
2022/10/16 06:18:08;;;;;;;2.67;1.50;;;;;;;13.67;100.00;96342.84;5038785;28;20201;-73
2022/10/16 06:20:34;;;;;;;3.95;1.60;;;;;;;13.68;100.00;96349.78;5038914;28;20216;-73
2022/10/16 06:23:01;;;;;;;4.07;1.77;;;;;;;13.83;100.00;96352.31;5037937;28;20221;-73
2022/10/16 06:25:27;;;;;;;4.25;2.35;;;;;;;13.92;100.00;96359.09;5038542;28;20202;-73
2022/10/16 06:27:55;;;;;;;9.30;2.70;;;;;;;13.98;100.00;96352.00;5035524;28;20198;-73
2022/10/16 06:30:22;;;;;;;6.95;2.45;;;;;;;14.03;100.00;96359.38;5038769;28;20205;-73
2022/10/16 06:32:48;;;;;;;5.80;2.63;;;;;;;14.11;100.00;96362.72;5037672;28;20248;-73
2022/10/16 06:35:15;;;;;;;7.68;2.58;;;;;;;14.23;100.00;96361.16;5038916;28;20212;-73
2022/10/16 06:37:41;;;;;;;4.78;2.47;;;;;;;14.23;100.00;96370.94;5038276;28;20201;-73
2022/10/16 06:40:09;;;;;;;7.63;3.35;;;;;;;14.42;100.00;96364.91;5038230;28;20197;-73
2022/10/16 06:42:35;;;;;;;8.43;3.60;;;;;;;14.49;100.00;96365.78;5037819;28;20228;-73
2022/10/16 06:45:03;;;;;;;9.40;3.40;;;;;;;14.47;100.00;96370.44;5039095;28;20221;-73
2022/10/16 06:47:30;;;;;;;9.48;2.88;;;;;;;14.58;100.00;96368.03;5038226;28;20213;-73
2022/10/16 06:49:57;;;;;;;6.03;3.40;;;;;;;14.66;100.00;96368.69;5038489;28;20209;-73
2022/10/16 06:52:23;;;;;;;7.10;3.55;;;;;;;14.71;100.00;96365.44;5037165;28;20239;-73
2022/10/16 06:54:50;;;;;;;4.82;2.88;;;;;;;14.76;100.00;96373.63;5038924;28;20193;-73
2022/10/16 06:57:17;;;;;;;8.98;3.55;;;;;;;14.81;100.00;96372.00;5039736;28;20200;-73
2022/10/16 06:59:44;;;;;;;12.80;2.50;;;;;;;14.80;100.00;96385.47;5040299;28;20199;-72
2022/10/16 07:02:12;;;;;;;6.97;2.95;;;;;;;14.91;100.00;96384.91;5040421;28;20228;-72
2022/10/16 07:04:38;;;;;;;4.28;2.40;;;;;;;14.98;100.00;96383.91;5039139;28;20228;-72
2022/10/16 07:07:05;;;;;;;9.02;3.63;;;;;;;14.91;100.00;96401.63;5039803;28;20193;-72
2022/10/16 07:09:32;;;;;;;7.75;3.22;;;;;;;15.13;100.00;96389.03;5039677;28;20208;-72
2022/10/16 07:11:58;;;;;;;11.35;3.70;;;;;;;15.06;100.00;96412.06;5039552;28;20229;-72
2022/10/16 07:14:25;;;;;;;7.30;3.42;;;;;;;15.27;100.00;96402.16;5037322;28;20288;-71
2022/10/16 07:16:51;;;;;;;12.35;3.88;;;;;;;15.31;100.00;96421.97;5038065;28;21088;-73
2022/10/16 07:19:19;;;;;;;11.40;4.28;;;;;;;15.58;100.00;96407.69;5035212;28;20201;-73
2022/10/16 07:21:46;;;;;;;9.57;4.13;;;;;;;15.60;100.00;96411.00;5037592;28;20217;-73
2022/10/16 07:24:14;;;;;;;7.60;3.35;;;;;;;15.64;100.00;96417.53;5037401;28;20221;-73
2022/10/16 07:26:44;;;;;;;6.78;2.72;;;;;;;15.81;100.00;96416.09;5037775;28;20706;-73
2022/10/16 07:29:14;;;;;;;6.82;2.78;;;;;;;15.70;100.00;96435.31;5037844;28;20216;-72
2022/10/16 07:31:41;;;;;;;14.15;3.83;;;;;;;15.87;100.00;96432.03;5038365;28;20217;-72
2022/10/16 07:34:07;;;;;;;8.98;3.50;;;;;;;15.80;100.00;96433.09;5037773;28;20197;-73
2022/10/16 07:36:35;;;;;;;12.75;3.90;;;;;;;15.98;100.00;96431.44;5037499;28;20578;-74
2022/10/16 07:39:02;;;;;;;9.05;3.63;;;;;;;15.98;100.00;96431.44;5037580;28;20216;-73
2022/10/16 07:41:28;;;;;;;6.47;2.72;;;;;;;16.02;100.00;96427.34;5038462;28;20228;-73
2022/10/16 07:43:57;;;;;;;9.73;3.00;;;;;;;15.95;100.00;96426.53;5034647;28;20694;-73
2022/10/16 07:46:24;;;;;;;11.55;2.78;;;;;;;16.08;100.00;96431.84;5035071;28;20255;-73
2022/10/16 07:48:51;;;;;;;13.82;2.97;;;;;;;16.15;100.00;96435.31;5033680;28;20213;-73
2022/10/16 07:51:20;;;;;;;4.97;2.15;;;;;;;16.29;100.00;96432.44;5033444;28;20227;-74
2022/10/16 07:53:49;;;;;;;5.38;2.50;;;;;;;16.30;100.00;96441.25;5033179;28;20201;-73
2022/10/16 07:56:17;;;;;;;6.47;2.60;;;;;;;16.31;100.00;96443.69;5032898;28;20205;-73
2022/10/16 07:58:44;;;;;;;5.38;2.47;;;;;;;16.38;100.00;96444.53;5034498;28;20201;-73
2022/10/16 08:01:12;;;;;;;12.10;5.18;;;;;;;16.47;100.00;96448.59;5035275;28;20228;-74
2022/10/16 08:03:42;;;;;;;17.70;6.53;;;;;;;16.41;100.00;96449.41;5033208;28;20308;-73
2022/10/16 08:06:08;;;;;;;17.63;7.25;;;;;;;16.33;100.00;96462.94;5035887;28;20207;-73
2022/10/16 08:08:35;;;;;;;10.27;3.90;;;;;;;16.44;100.00;96466.81;5038625;28;20212;-73
2022/10/16 08:11:03;;;;;;;12.63;4.95;;;;;;;16.62;100.00;96462.47;5034246;28;20228;-73
2022/10/16 08:13:31;;;;;;;7.00;2.88;;;;;;;16.56;100.00;96473.97;5035483;28;20197;-73
2022/10/16 08:15:57;;;;;;;4.95;1.85;;;;;;;16.67;100.00;96468.78;5036183;28;20197;-73
2022/10/16 08:18:24;;;;;;;5.35;2.80;;;;;;;16.71;100.00;96479.84;5035698;28;20193;-72
2022/10/16 08:20:56;;;;;;;4.65;2.42;;;;;;;16.71;100.00;96471.84;5035664;28;20861;-72
2022/10/16 08:23:23;;;;;;;3.67;2.40;;;;;;;16.52;100.00;96483.34;5038308;28;20250;-75
2022/10/16 08:25:49;;;;;;;3.42;2.17;;;;;;;16.70;100.00;96492.34;5037917;28;20276;-72
2022/10/16 08:28:17;;;;;;;4.68;2.10;;;;;;;16.64;100.00;96497.69;5037803;28;20201;-72
2022/10/16 08:30:44;;;;;;;7.22;1.77;;;;;;;16.58;100.00;96498.50;5033201;28;20197;-72
2022/10/16 08:33:11;;;;;;;3.13;1.98;;;;;;;16.60;100.00;96494.59;5035188;28;20207;-72
2022/10/16 08:35:38;;;;;;;5.95;2.00;;;;;;;16.48;100.00;96496.28;5034554;28;20689;-74
2022/10/16 08:38:05;;;;;;;3.92;1.67;;;;;;;16.60;100.00;96504.44;5036245;28;20201;-72
2022/10/16 08:40:34;;;;;;;3.33;2.10;;;;;;;16.64;100.00;96503.81;5036642;28;20201;-73
2022/10/16 08:43:32;;;;;;;4.40;2.13;;;;;;;16.74;100.00;96508.72;5035785;28;20221;-73
2022/10/16 08:46:16;;;;;;;6.82;2.55;;;;;;;16.65;100.00;96508.09;5036535;28;20689;-73
2022/10/16 08:48:47;;;;;;;4.57;2.22;;;;;;;16.77;100.00;96508.28;5036036;28;20212;-72
2022/10/16 08:51:21;;;;;;;6.68;2.35;;;;;;;16.78;100.00;96508.06;5035626;28;20225;-72
2022/10/16 08:53:53;;;;;;;4.10;2.13;;;;;;;16.91;100.00;96500.06;5038497;28;20204;-72
2022/10/16 08:56:20;;;;;;;4.85;2.17;;;;;;;16.76;100.00;96506.66;5038388;28;20786;-72
2022/10/16 08:58:49;;;;;;;5.18;2.40;;;;;;;16.66;100.00;96506.25;5037838;28;20201;-72
2022/10/16 09:01:19;;;;;;;4.05;2.17;;;;;;;16.98;100.00;96522.16;5039110;28;20308;-72
2022/10/16 09:04:08;;;;;;;7.43;3.03;;;;;;;17.17;100.00;96521.25;5039183;28;20205;-72
2022/10/16 09:06:47;;;;;;;4.82;2.42;;;;;;;17.19;100.00;96524.53;5037087;28;20201;-72
2022/10/16 09:09:48;;;;;;;4.30;2.47;;;;;;;17.17;100.00;96521.25;5038111;28;20229;-72
2022/10/16 09:12:21;;;;;;;8.52;2.03;;;;;;;17.19;100.00;96524.53;5038987;28;20220;-72
2022/10/16 09:15:14;;;;;;;3.05;1.80;;;;;;;17.23;100.00;96513.28;5036102;28;20204;-72
2022/10/16 09:17:50;;;;;;;5.00;2.00;;;;;;;17.12;100.00;96513.91;5035844;28;20216;-73
2022/10/16 09:20:30;;;;;;;3.65;2.28;;;;;;;17.33;100.00;96515.50;5036319;28;20204;-72
2022/10/16 09:23:11;;;;;;;8.00;2.13;;;;;;;17.30;100.00;96516.75;5035179;28;20217;-71
2022/10/16 09:25:40;;;;;;;3.45;2.20;;;;;;;17.22;100.00;96516.97;5036196;28;20232;-73
2022/10/16 09:28:09;;;;;;;5.47;2.97;;;;;;;17.29;100.00;96524.94;5035582;28;20850;-72
2022/10/16 09:30:38;;;;;;;6.53;2.33;;;;;;;17.48;100.00;96527.53;5034792;28;20212;-73
2022/10/16 09:33:06;;;;;;;4.68;2.35;;;;;;;17.37;100.00;96530.84;5035215;28;20201;-72
2022/10/16 09:35:37;;;;;;;12.10;2.78;;;;;;;17.40;100.00;96527.78;5036681;28;20296;-73
2022/10/16 09:38:04;;;;;;;5.30;2.45;;;;;;;17.48;100.00;96534.72;5035591;28;20197;-73
2022/10/16 09:40:34;;;;;;;4.45;2.30;;;;;;;17.63;100.00;96536.06;5035855;28;20201;-73
2022/10/16 09:43:07;;;;;;;6.00;3.17;;;;;;;17.59;100.00;96529.53;5039295;28;20225;-72
2022/10/16 09:45:33;;;;;;;6.25;4.03;;;;;;;17.85;100.00;96540.03;5039554;28;20303;-72
2022/10/16 09:48:10;;;;;;;7.47;3.30;;;;;;;18.17;100.00;96542.50;5038188;28;20228;-73
2022/10/16 09:50:38;;;;;;;4.25;2.15;;;;;;;18.61;100.00;96540.50;5039260;28;20204;-73
2022/10/16 09:53:06;;;;;;;8.30;2.03;;;;;;;18.74;100.00;96543.06;5038442;28;20197;-72
2022/10/16 09:55:33;;;;;;;5.65;2.22;;;;;;;19.15;100.00;96553.97;5039018;28;20204;-72
2022/10/16 09:57:59;;;;;;;3.38;2.30;;;;;;;19.23;99.26;96549.16;5039114;28;20201;-73
2022/10/16 10:00:26;;;;;;;3.25;1.80;;;;;;;18.93;96.62;96555.41;5038090;28;20654;-71
2022/10/16 10:02:54;;;;;;;15.63;7.22;;;;;;;18.98;97.73;96564.38;5036374;28;20221;-71
2022/10/16 10:05:25;;;;;;;5.28;2.35;;;;;;;19.28;98.22;96565.31;5038179;28;20217;-72
2022/10/16 10:07:58;;;;;;;4.78;2.17;;;;;;;19.04;95.30;96573.38;5039401;28;20213;-72
2022/10/16 10:10:26;;;;;;;5.07;1.60;;;;;;;19.07;95.28;96575.66;5039281;28;20208;-74
2022/10/16 10:12:54;;;;;;;4.03;1.70;;;;;;;19.15;100.00;96570.00;5037866;28;20232;-71
2022/10/16 10:15:21;;;;;;;5.88;2.00;;;;;;;19.33;98.40;96562.81;5038774;28;20208;-72
2022/10/16 10:17:50;;;;;;;3.08;1.80;;;;;;;20.06;95.21;96559.84;5035724;28;20670;-72
2022/10/16 10:20:25;;;;;;;7.07;2.05;;;;;;;20.06;91.13;96554.50;5041091;28;20302;-72
2022/10/16 10:22:52;;;;;;;7.63;2.10;;;;;;;19.85;92.40;96562.97;5040340;28;21219;-72
2022/10/16 10:25:36;;;;;;;6.53;2.10;;;;;;;19.69;93.93;96560.09;5041451;28;20221;-72
2022/10/16 10:28:22;;;;;;;3.63;1.85;;;;;;;19.26;95.60;96546.03;5041459;28;20200;-72
2022/10/16 10:30:57;;;;;;;5.82;1.58;;;;;;;19.58;95.10;96550.97;5040270;28;20205;-71
2022/10/16 10:33:31;;;;;;;3.33;1.58;;;;;;;19.42;93.52;96560.66;5038302;28;20201;-73
2022/10/16 10:36:09;;;;;;;3.67;1.90;;;;;;;19.47;94.15;96563.47;5039553;28;20204;-71
2022/10/16 10:38:44;;;;;;;3.33;1.65;;;;;;;19.46;95.84;96556.50;5037681;28;20205;-71
2022/10/16 10:41:35;;;;;;;2.60;1.70;;;;;;;19.35;96.91;96555.41;5038329;28;20772;-72
2022/10/16 10:44:08;;;;;;;8.07;1.90;;;;;;;19.39;97.53;96555.78;5038642;28;20208;-72
2022/10/16 10:46:39;;;;;;;5.72;2.00;;;;;;;19.29;96.89;96556.28;5038420;28;20212;-72
2022/10/16 10:49:18;;;;;;;3.78;1.90;;;;;;;19.28;97.27;96559.19;5037475;28;20220;-71
2022/10/16 10:51:58;;;;;;;4.07;1.50;;;;;;;19.35;97.57;96557.25;5037919;28;21143;-71
2022/10/16 10:54:31;;;;;;;5.45;1.52;;;;;;;19.40;99.66;96552.88;5036665;28;20212;-71
2022/10/16 10:57:02;;;;;;;3.83;1.60;;;;;;;19.31;100.00;96556.88;5038241;28;20665;-72
2022/10/16 11:00:09;;;;;;;5.15;1.85;;;;;;;19.44;100.00;96551.38;5035784;28;20962;-70
2022/10/16 11:02:41;;;;;;;5.65;1.50;;;;;;;19.43;100.00;96549.75;4957834;28;20224;-71
2022/10/16 11:05:25;;;;;;;4.15;1.70;;;;;;;19.45;100.00;96546.84;4957718;28;20708;-73
2022/10/16 11:07:58;;;;;;;2.92;1.77;;;;;;;19.50;99.76;96541.63;5009863;28;20670;-73
2022/10/16 11:10:29;;;;;;;3.88;1.83;;;;;;;19.70;99.53;96537.66;5038766;28;20197;-73
2022/10/16 11:13:03;;;;;;;5.50;1.90;;;;;;;19.76;99.51;96540.25;5039915;28;20225;-73
2022/10/16 11:15:40;;;;;;;2.97;1.73;;;;;;;19.86;100.00;96532.50;5042075;28;20197;-74
2022/10/16 11:18:09;;;;;;;5.40;2.60;;;;;;;19.89;100.00;96534.72;5040101;28;20207;-73
2022/10/16 11:20:41;;;;;;;5.03;1.83;;;;;;;19.83;100.00;96522.28;5039801;28;20285;-73
2022/10/16 11:23:15;;;;;;;3.63;1.83;;;;;;;19.94;98.07;96524.19;5038550;28;20189;-73
2022/10/16 11:25:44;;;;;;;5.63;1.70;;;;;;;20.00;98.62;96523.28;5038650;28;20216;-73
2022/10/16 11:28:15;;;;;;;3.28;1.83;;;;;;;20.00;100.00;96517.13;5039600;28;20205;-73
2022/10/16 11:30:48;;;;;;;2.67;1.63;;;;;;;20.15;98.18;96507.63;5037422;28;20209;-73
2022/10/16 11:33:31;;;;;;;5.68;1.92;;;;;;;20.23;98.83;96513.44;5038767;28;20203;-73
2022/10/16 11:36:04;;;;;;;6.45;1.60;;;;;;;20.18;98.59;96509.03;5039004;28;20207;-73
2022/10/16 11:38:39;;;;;;;2.30;1.70;;;;;;;20.20;96.89;96515.81;5039101;28;20215;-73